createdAt,value
2022-10-10T00:00:49.116Z,101033.13
2022-10-10T00:03:17.239Z,101028.63
2022-10-10T00:05:45.167Z,101029.50
2022-10-10T00:08:13.046Z,101032.06
2022-10-10T00:10:42.303Z,101038.19
2022-10-10T00:13:10.239Z,101033.59
2022-10-10T00:15:38.127Z,101040.56
2022-10-10T00:18:06.172Z,101039.72
2022-10-10T00:20:34.053Z,101029.84
2022-10-10T00:23:01.933Z,101036.91
2022-10-10T00:25:29.784Z,101040.47
2022-10-10T00:28:02.102Z,101027.03
2022-10-10T00:30:30.020Z,101034.34
2022-10-10T00:32:59.367Z,101038.94
2022-10-10T00:35:27.341Z,101037.22
2022-10-10T00:37:55.184Z,101041.75
2022-10-10T00:40:23.293Z,101037.22
2022-10-10T00:42:51.447Z,101043.56
2022-10-10T00:45:27.880Z,101042.59
2022-10-10T00:47:57.777Z,101040.25
2022-10-10T00:50:25.641Z,101050.75
2022-10-10T00:52:54.143Z,101049.81
2022-10-10T00:55:22.135Z,101046.16
2022-10-10T00:57:50.654Z,101047.00
2022-10-10T01:00:18.929Z,101058.53
2022-10-10T01:02:48.469Z,101062.06
2022-10-10T01:05:16.737Z,101059.28
2022-10-10T01:07:44.612Z,101055.72
2022-10-10T01:10:13.633Z,101060.34
2022-10-10T01:12:50.769Z,101044.44
2022-10-10T01:15:22.275Z,101054.88
2022-10-10T01:17:54.492Z,101057.47
2022-10-10T01:20:39.061Z,101034.66
2022-10-10T01:23:23.620Z,101027.00
2022-10-10T01:25:58.848Z,101051.13
2022-10-10T01:28:32.830Z,101055.41
2022-10-10T01:31:00.804Z,101058.97
2022-10-10T01:33:30.655Z,101069.63
2022-10-10T01:36:00.300Z,101073.69
2022-10-10T01:38:30.832Z,101063.41
2022-10-10T01:41:02.087Z,101078.66
2022-10-10T01:43:31.663Z,101080.00
2022-10-10T01:45:59.657Z,101076.00
2022-10-10T01:48:29.233Z,101076.41
2022-10-10T01:51:06.187Z,101077.75
2022-10-10T01:53:39.138Z,101066.66
2022-10-10T01:56:09.507Z,101098.59
2022-10-10T01:58:53.652Z,101105.50
2022-10-10T02:01:23.612Z,101105.56
2022-10-10T02:03:54.388Z,101113.50
2022-10-10T02:06:23.551Z,101125.44
2022-10-10T02:08:52.958Z,101119.66
2022-10-10T02:11:20.872Z,101125.25
2022-10-10T02:13:52.259Z,101124.47
2022-10-10T02:16:22.074Z,101135.03
2022-10-10T02:18:49.933Z,101148.00
2022-10-10T02:21:17.846Z,101148.63
2022-10-10T02:23:47.806Z,101153.63
2022-10-10T02:26:17.337Z,101161.19
2022-10-10T02:28:47.285Z,101143.94
2022-10-10T02:31:18.224Z,101156.94
2022-10-10T02:33:48.362Z,101147.88
2022-10-10T02:36:16.251Z,101170.25
2022-10-10T02:38:44.088Z,101170.63
2022-10-10T02:41:12.642Z,101183.53
2022-10-10T02:43:40.708Z,101183.69
2022-10-10T02:46:10.220Z,101185.81
2022-10-10T02:48:39.502Z,101189.53
2022-10-10T02:51:07.619Z,101195.84
2022-10-10T02:53:35.500Z,101194.97
2022-10-10T02:56:03.415Z,101185.97
2022-10-10T02:58:31.339Z,101194.97
2022-10-10T03:00:59.348Z,101201.25
2022-10-10T03:03:27.299Z,101202.25
2022-10-10T03:05:56.507Z,101210.38
2022-10-10T03:08:24.382Z,101211.31
2022-10-10T03:10:56.697Z,101220.28
2022-10-10T03:13:24.548Z,101226.50
2022-10-10T03:15:52.545Z,101230.13
2022-10-10T03:18:20.456Z,101235.38
2022-10-10T03:20:48.472Z,101250.72
2022-10-10T03:23:17.760Z,101256.78
2022-10-10T03:25:45.627Z,101271.97
2022-10-10T03:28:13.579Z,101277.25
2022-10-10T03:30:41.527Z,101285.34
2022-10-10T03:33:09.453Z,101289.75
2022-10-10T03:35:37.291Z,101295.19
2022-10-10T03:38:05.442Z,101296.06
2022-10-10T03:40:34.795Z,101309.47
2022-10-10T03:43:02.637Z,101308.63
2022-10-10T03:45:30.637Z,101299.88
2022-10-10T03:47:58.529Z,101319.34
2022-10-10T03:50:26.402Z,101318.38
2022-10-10T03:52:54.314Z,101321.78
2022-10-10T03:55:22.162Z,101343.88
2022-10-10T03:57:51.379Z,101341.91
2022-10-10T04:00:19.395Z,101340.97
2022-10-10T04:02:47.412Z,101346.09
2022-10-10T04:05:15.401Z,101353.97
2022-10-10T04:07:43.308Z,101355.59
2022-10-10T04:10:11.371Z,101370.06
2022-10-10T04:12:39.275Z,101381.88
2022-10-10T04:15:09.704Z,101380.38
2022-10-10T04:17:37.638Z,101389.66
2022-10-10T04:20:06.216Z,101391.81
2022-10-10T04:22:34.122Z,101412.63
2022-10-10T04:25:01.986Z,101404.03
2022-10-10T04:27:29.888Z,101403.41
2022-10-10T04:29:57.790Z,101424.94
2022-10-10T04:32:30.483Z,101424.28
2022-10-10T04:34:58.785Z,101421.75
2022-10-10T04:37:26.656Z,101428.19
2022-10-10T04:39:54.501Z,101427.56
2022-10-10T04:42:22.460Z,101446.38
2022-10-10T04:44:50.320Z,101438.59
2022-10-10T04:47:18.349Z,101451.16
2022-10-10T04:49:47.726Z,101449.59
2022-10-10T04:52:16.081Z,101447.94
2022-10-10T04:54:43.980Z,101452.56
2022-10-10T04:57:12.176Z,101446.75
2022-10-10T04:59:40.065Z,101466.06
2022-10-10T05:02:07.970Z,101478.56
2022-10-10T05:04:36.081Z,101477.81
2022-10-10T05:07:05.437Z,101482.28
2022-10-10T05:09:33.780Z,101487.63
2022-10-10T05:12:01.764Z,101488.59
2022-10-10T05:14:29.802Z,101497.59
2022-10-10T05:16:57.696Z,101495.88
2022-10-10T05:19:25.859Z,101516.41
2022-10-10T05:21:53.753Z,101517.41
2022-10-10T05:24:23.612Z,101520.09
2022-10-10T05:26:51.494Z,101515.00
2022-10-10T05:29:19.444Z,101521.22
2022-10-10T05:31:47.297Z,101526.53
2022-10-10T05:34:15.512Z,101538.16
2022-10-10T05:36:43.512Z,101534.88
2022-10-10T05:39:11.413Z,101555.25
2022-10-10T05:41:40.692Z,101550.91
2022-10-10T05:44:09.274Z,101562.47
2022-10-10T05:46:37.129Z,101560.72
2022-10-10T05:49:05.068Z,101574.94
2022-10-10T05:51:32.940Z,101577.69
2022-10-10T05:54:00.836Z,101577.56
2022-10-10T05:56:28.713Z,101578.44
2022-10-10T05:58:57.983Z,101582.81
2022-10-10T06:01:25.812Z,101587.28
2022-10-10T06:03:56.080Z,101596.19
2022-10-10T06:06:24.084Z,101600.78
2022-10-10T06:08:51.995Z,101589.72
2022-10-10T06:11:20.779Z,101608.84
2022-10-10T06:13:52.619Z,101620.47
2022-10-10T06:16:22.145Z,101616.06
2022-10-10T06:18:50.087Z,101627.63
2022-10-10T06:21:18.145Z,101631.34
2022-10-10T06:23:50.046Z,101587.97
2022-10-10T06:26:17.992Z,101649.91
2022-10-10T06:28:45.944Z,101646.38
2022-10-10T06:31:14.161Z,101658.78
2022-10-10T06:33:45.640Z,101661.53
2022-10-10T06:36:15.108Z,101662.59
2022-10-10T06:38:43.772Z,101668.81
2022-10-10T06:41:24.913Z,101674.94
2022-10-10T06:43:52.774Z,101683.00
2022-10-10T06:46:20.620Z,101685.63
2022-10-10T06:48:49.931Z,101687.50
2022-10-10T06:51:17.913Z,101691.81
2022-10-10T06:53:45.976Z,101698.16
2022-10-10T06:56:30.440Z,101709.50
2022-10-10T06:59:02.288Z,101683.50
2022-10-10T07:01:30.288Z,101720.97
2022-10-10T07:03:59.757Z,101736.03
2022-10-10T07:06:35.229Z,101735.78
2022-10-10T07:09:03.469Z,101734.97
2022-10-10T07:11:31.356Z,101751.59
2022-10-10T07:13:59.248Z,101758.56
2022-10-10T07:16:27.152Z,101765.59
2022-10-10T07:18:55.200Z,101768.97
2022-10-10T07:21:24.448Z,101766.31
2022-10-10T07:23:52.330Z,101779.25
2022-10-10T07:26:22.363Z,101789.66
2022-10-10T07:28:50.365Z,101787.66
2022-10-10T07:31:18.271Z,101801.72
2022-10-10T07:33:50.968Z,101797.28
2022-10-10T07:36:21.981Z,101800.47
2022-10-10T07:38:55.312Z,101814.47
2022-10-10T07:41:25.274Z,101813.47
2022-10-10T07:43:55.515Z,101826.56
2022-10-10T07:46:23.651Z,101823.78
2022-10-10T07:48:51.677Z,101831.38
2022-10-10T07:51:19.635Z,101838.38
2022-10-10T07:53:47.805Z,101837.31
2022-10-10T07:56:23.057Z,101831.09
2022-10-10T07:58:51.591Z,101842.28
2022-10-10T08:01:24.880Z,101853.69
2022-10-10T08:03:52.807Z,101856.19
2022-10-10T08:06:20.683Z,101858.66
2022-10-10T08:08:51.741Z,101861.97
2022-10-10T08:11:21.801Z,101865.34
2022-10-10T08:13:50.062Z,101858.91
2022-10-10T08:16:18.043Z,101863.34
2022-10-10T08:18:46.006Z,101876.19
2022-10-10T08:21:14.626Z,101879.41
2022-10-10T08:23:42.686Z,101879.13
2022-10-10T08:26:11.317Z,101885.00
2022-10-10T08:28:40.794Z,101895.41
2022-10-10T08:31:08.823Z,101901.25
2022-10-10T08:33:36.741Z,101894.81
2022-10-10T08:36:08.248Z,101897.19
2022-10-10T08:38:38.567Z,101916.59
2022-10-10T08:41:15.676Z,101916.59
2022-10-10T08:43:48.839Z,101933.94
2022-10-10T08:46:22.872Z,101934.66
2022-10-10T08:48:50.801Z,101932.06
2022-10-10T08:51:25.617Z,101952.16
2022-10-10T08:53:54.631Z,101949.25
2022-10-10T08:56:25.686Z,101953.50
2022-10-10T08:58:56.514Z,101952.41
2022-10-10T09:01:33.798Z,101955.66
2022-10-10T09:04:02.032Z,101950.72
2022-10-10T09:06:52.563Z,101953.63
2022-10-10T09:09:23.258Z,101943.66
2022-10-10T09:11:58.041Z,101960.47
2022-10-10T09:14:34.683Z,101964.41
2022-10-10T09:17:04.206Z,101973.19
2022-10-10T09:19:39.319Z,101980.44
2022-10-10T09:22:11.854Z,101981.63
2022-10-10T09:24:43.522Z,101987.13
2022-10-10T09:27:13.862Z,101997.81
2022-10-10T09:29:45.043Z,101990.16
2022-10-10T09:32:14.379Z,101995.53
2022-10-10T09:34:43.550Z,101993.75
2022-10-10T09:37:24.404Z,102004.59
2022-10-10T09:40:04.269Z,102018.59
2022-10-10T09:42:34.886Z,102018.91
2022-10-10T09:45:25.139Z,101984.25
2022-10-10T09:47:55.516Z,102011.88
2022-10-10T09:50:23.595Z,102027.06
2022-10-10T09:52:51.553Z,102022.25
2022-10-10T09:55:27.575Z,102028.19
2022-10-10T09:57:56.611Z,102034.00
2022-10-10T10:00:34.767Z,102035.69
2022-10-10T10:03:07.797Z,102038.38
2022-10-10T10:05:35.759Z,102045.91
2022-10-10T10:08:03.628Z,102046.22
2022-10-10T10:10:31.566Z,102045.81
2022-10-10T10:13:05.509Z,102062.25
2022-10-10T10:15:37.655Z,102059.72
2022-10-10T10:18:11.814Z,102062.06
2022-10-10T10:20:40.391Z,102060.06
2022-10-10T10:23:26.260Z,102069.09
2022-10-10T10:26:01.305Z,102073.84
2022-10-10T10:28:29.840Z,102076.22
2022-10-10T10:30:59.653Z,102069.41
2022-10-10T10:33:37.664Z,102085.16
2022-10-10T10:36:11.800Z,102083.38
2022-10-10T10:38:47.636Z,102086.50
2022-10-10T10:41:19.522Z,102059.16
2022-10-10T10:43:53.377Z,102096.44
2022-10-10T10:46:28.871Z,102098.34
2022-10-10T10:49:02.115Z,102111.19
2022-10-10T10:51:49.545Z,102101.22
2022-10-10T10:54:26.291Z,102101.00
2022-10-10T10:57:01.983Z,102120.56
2022-10-10T11:00:33.183Z,102115.88
2022-10-10T11:03:05.701Z,102121.47
2022-10-10T11:05:40.785Z,102125.47
2022-10-10T11:08:40.176Z,102137.13
2022-10-10T11:11:34.196Z,102136.22
2022-10-10T11:14:03.855Z,102132.09
2022-10-10T11:16:50.597Z,102141.75
2022-10-10T11:19:36.521Z,102147.16
2022-10-10T11:22:07.263Z,102114.94
2022-10-10T11:24:43.045Z,102150.09
2022-10-10T11:27:14.132Z,102147.66
2022-10-10T11:29:50.698Z,102151.56
2022-10-10T11:35:03.272Z,102166.22
2022-10-10T11:37:32.119Z,102165.34
2022-10-10T11:40:02.298Z,102164.47
2022-10-10T11:42:32.635Z,102155.22
2022-10-10T11:45:01.187Z,102164.66
2022-10-10T11:47:32.352Z,102166.00
2022-10-10T11:50:03.817Z,102162.91
2022-10-10T11:52:40.803Z,102174.78
2022-10-10T11:55:11.720Z,102180.09
2022-10-10T11:57:41.886Z,102185.94
2022-10-10T12:00:18.553Z,102187.41
2022-10-10T12:02:50.078Z,102178.13
2022-10-10T12:05:22.546Z,102161.66
2022-10-10T12:08:01.509Z,102192.84
2022-10-10T12:10:31.669Z,102170.94
2022-10-10T12:13:02.738Z,102193.00
2022-10-10T12:15:31.411Z,102191.91
2022-10-10T12:17:59.396Z,102190.13
2022-10-10T12:20:34.422Z,102191.22
2022-10-10T12:23:34.794Z,102179.34
2022-10-10T12:26:05.667Z,102178.00
2022-10-10T12:28:37.757Z,102183.78
2022-10-10T12:31:30.039Z,102205.56
2022-10-10T12:34:36.700Z,102200.75
2022-10-10T12:37:26.149Z,102206.63
2022-10-10T12:40:29.367Z,102196.25
2022-10-10T12:43:05.487Z,102216.81
2022-10-10T12:45:59.270Z,102218.34
2022-10-10T12:48:27.226Z,102171.25
2022-10-10T12:51:01.805Z,102232.09
2022-10-10T12:53:32.586Z,102222.97
2022-10-10T12:56:01.657Z,102207.22
2022-10-10T12:58:30.502Z,102204.19
2022-10-10T13:01:02.786Z,102226.06
2022-10-10T13:03:32.850Z,102238.16
2022-10-10T13:06:04.331Z,102241.13
2022-10-10T13:08:33.757Z,102237.78
2022-10-10T13:11:06.968Z,102240.59
2022-10-10T13:13:35.085Z,102255.53
2022-10-10T13:16:07.926Z,102255.16
2022-10-10T13:18:37.151Z,102249.00
2022-10-10T13:21:06.086Z,102249.56
2022-10-10T13:23:36.477Z,102249.25
2022-10-10T13:26:04.635Z,102256.72
2022-10-10T13:28:33.036Z,102265.41
2022-10-10T13:31:01.170Z,102259.88
2022-10-10T13:33:31.953Z,102264.78
2022-10-10T13:36:06.022Z,102265.25
2022-10-10T13:38:33.973Z,102269.75
2022-10-10T13:41:05.388Z,102260.72
2022-10-10T13:43:34.451Z,102263.81
2022-10-10T13:46:03.493Z,102271.25
2022-10-10T13:48:40.941Z,102273.81
2022-10-10T13:51:10.598Z,102276.81
2022-10-10T13:53:49.521Z,102280.53
2022-10-10T13:56:26.929Z,102278.94
2022-10-10T13:58:56.070Z,102287.47
2022-10-10T14:01:30.726Z,102274.34
2022-10-10T14:04:01.347Z,102263.53
2022-10-10T14:06:29.512Z,102274.19
2022-10-10T14:09:07.870Z,102272.84
2022-10-10T14:11:41.233Z,102226.81
2022-10-10T14:14:25.253Z,102270.22
2022-10-10T14:17:00.254Z,102287.25
2022-10-10T14:19:28.436Z,102266.28
2022-10-10T14:21:57.188Z,102285.69
2022-10-10T14:24:29.717Z,102283.06
2022-10-10T14:26:59.124Z,102264.22
2022-10-10T14:29:27.097Z,102276.03
2022-10-10T14:31:55.056Z,102290.69
2022-10-10T14:34:22.961Z,102292.16
2022-10-10T14:36:51.399Z,102278.09
2022-10-10T14:39:19.929Z,102290.94
2022-10-10T14:41:48.027Z,102288.94
2022-10-10T14:44:17.301Z,102296.03
2022-10-10T14:46:45.351Z,102290.53
2022-10-10T14:49:17.494Z,102309.50
2022-10-10T14:51:45.499Z,102307.56
2022-10-10T14:54:14.027Z,102299.03
2022-10-10T14:57:07.453Z,102310.56
2022-10-10T14:59:48.014Z,102295.81
2022-10-10T15:02:21.299Z,102310.25
2022-10-10T15:04:49.258Z,102313.09
2022-10-10T15:07:18.329Z,102322.03
2022-10-10T15:10:17.605Z,102325.06
2022-10-10T15:12:42.679Z,102327.81
2022-10-10T15:15:12.798Z,102333.44
2022-10-10T15:17:41.095Z,102334.59
2022-10-10T15:20:10.517Z,102326.03
2022-10-10T15:22:38.529Z,102324.47
2022-10-10T15:25:07.343Z,102322.25
2022-10-10T15:27:35.298Z,102328.38
2022-10-10T15:30:03.313Z,102340.13
2022-10-10T15:32:40.746Z,102292.50
2022-10-10T15:35:11.756Z,102334.50
2022-10-10T15:37:39.693Z,102327.00
2022-10-10T15:40:08.336Z,102342.72
2022-10-10T15:42:36.272Z,102336.72
2022-10-10T15:45:04.193Z,102340.84
2022-10-10T15:47:33.790Z,102354.06
2022-10-10T15:50:01.743Z,102349.19
2022-10-10T15:52:32.721Z,102357.16
2022-10-10T15:55:00.593Z,102364.44
2022-10-10T15:57:28.476Z,102361.03
2022-10-10T15:59:56.368Z,102355.41
2022-10-10T16:02:24.372Z,102353.25
2022-10-10T16:04:53.710Z,102369.75
2022-10-10T16:07:29.175Z,102383.22
2022-10-10T16:09:59.002Z,102389.72
2022-10-10T16:12:27.085Z,102385.69
2022-10-10T16:14:55.398Z,102395.28
2022-10-10T16:17:24.678Z,102391.22
2022-10-10T16:20:00.245Z,102373.41
2022-10-10T16:22:28.133Z,102405.47
2022-10-10T16:25:22.011Z,102398.97
2022-10-10T16:27:51.884Z,102418.78
2022-10-10T16:30:20.957Z,102413.69
2022-10-10T16:32:49.364Z,102421.13
2022-10-10T16:35:19.198Z,102410.03
2022-10-10T16:37:47.200Z,102417.25
2022-10-10T16:40:21.158Z,102412.63
2022-10-10T16:42:49.209Z,102424.03
2022-10-10T16:45:17.157Z,102427.22
2022-10-10T16:47:45.107Z,102439.16
2022-10-10T16:50:13.295Z,102429.63
2022-10-10T16:52:48.221Z,102391.59
2022-10-10T16:55:16.238Z,102410.94
2022-10-10T16:57:44.201Z,102421.63
2022-10-10T17:00:12.814Z,102410.69
2022-10-10T17:02:42.420Z,102435.47
2022-10-10T17:05:10.734Z,102441.91
2022-10-10T17:07:38.622Z,102450.31
2022-10-10T17:10:09.300Z,102452.44
2022-10-10T17:12:37.453Z,102428.91
2022-10-10T17:15:06.811Z,102417.97
2022-10-10T17:17:35.395Z,102460.31
2022-10-10T17:20:03.267Z,102465.88
2022-10-10T17:22:31.833Z,102475.78
2022-10-10T17:24:59.800Z,102470.56
2022-10-10T17:27:29.105Z,102475.16
2022-10-10T17:29:57.168Z,102475.50
2022-10-10T17:32:26.518Z,102472.28
2022-10-10T17:34:55.681Z,102480.63
2022-10-10T17:37:26.327Z,102488.91
2022-10-10T17:39:54.332Z,102477.03
2022-10-10T17:42:22.430Z,102496.53
2022-10-10T17:44:56.192Z,102490.69
2022-10-10T17:47:27.032Z,102493.75
2022-10-10T17:49:54.982Z,102510.88
2022-10-10T17:52:25.538Z,102512.88
2022-10-10T17:54:53.494Z,102513.03
2022-10-10T17:57:21.343Z,102517.69
2022-10-10T17:59:49.312Z,102520.63
2022-10-10T18:02:19.121Z,102521.84
2022-10-10T18:04:47.073Z,102531.94
2022-10-10T18:07:15.172Z,102535.72
2022-10-10T18:09:46.117Z,102543.78
2022-10-10T18:12:14.037Z,102553.75
2022-10-10T18:14:41.881Z,102541.50
2022-10-10T18:17:09.778Z,102547.91
2022-10-10T18:19:39.027Z,102541.97
2022-10-10T18:22:07.099Z,102550.84
2022-10-10T18:24:34.958Z,102547.41
2022-10-10T18:27:02.861Z,102561.84
2022-10-10T18:29:30.710Z,102564.69
2022-10-10T18:31:58.621Z,102568.41
2022-10-10T18:34:26.721Z,102563.22
2022-10-10T18:36:56.072Z,102570.66
2022-10-10T18:39:25.194Z,102554.00
2022-10-10T18:41:55.329Z,102563.09
2022-10-10T18:44:23.213Z,102573.84
2022-10-10T18:46:51.215Z,102578.41
2022-10-10T18:49:19.549Z,102573.25
2022-10-10T18:51:47.447Z,102580.53
2022-10-10T18:54:17.522Z,102584.19
2022-10-10T18:56:45.842Z,102580.72
2022-10-10T18:59:23.081Z,102577.31
2022-10-10T19:01:52.565Z,102594.47
2022-10-10T19:04:22.633Z,102603.53
2022-10-10T19:06:54.657Z,102602.72
2022-10-10T19:09:29.709Z,102600.19
2022-10-10T19:11:57.664Z,102582.75
2022-10-10T19:14:25.520Z,102612.09
2022-10-10T19:16:53.412Z,102609.78
2022-10-10T19:19:21.393Z,102616.31
2022-10-10T19:21:52.412Z,102618.31
2022-10-10T19:24:21.390Z,102604.31
2022-10-10T19:26:55.956Z,102608.13
2022-10-10T19:29:24.182Z,102621.78
2022-10-10T19:31:52.250Z,102620.09
2022-10-10T19:34:20.181Z,102621.88
2022-10-10T19:36:48.059Z,102627.09
2022-10-10T19:39:19.316Z,102609.28
2022-10-10T19:41:50.103Z,102569.25
2022-10-10T19:44:19.583Z,102648.53
2022-10-10T19:46:47.977Z,102633.34
2022-10-10T19:49:18.437Z,102623.47
2022-10-10T19:51:47.559Z,102628.81
2022-10-10T19:54:16.056Z,102632.56
2022-10-10T19:56:43.960Z,102647.00
2022-10-10T19:59:11.891Z,102649.78
2022-10-10T20:01:41.293Z,102645.56
2022-10-10T20:04:09.271Z,102627.34
2022-10-10T20:06:37.445Z,102646.06
2022-10-10T20:09:10.367Z,102664.03
2022-10-10T20:11:38.910Z,102657.81
2022-10-10T20:14:06.863Z,102644.56
2022-10-10T20:16:34.688Z,102651.41
2022-10-10T20:19:04.141Z,102640.13
2022-10-10T20:21:32.887Z,102669.44
2022-10-10T20:24:01.336Z,102680.22
2022-10-10T20:26:29.313Z,102677.72
2022-10-10T20:28:57.683Z,102668.88
2022-10-10T20:31:26.843Z,102673.31
2022-10-10T20:33:55.890Z,102679.44
2022-10-10T20:36:27.477Z,102687.63
2022-10-10T20:38:55.634Z,102677.09
2022-10-10T20:41:24.553Z,102691.22
2022-10-10T20:43:58.148Z,102678.94
2022-10-10T20:46:26.651Z,102686.00
2022-10-10T20:48:54.994Z,102702.84
2022-10-10T20:51:22.890Z,102702.84
2022-10-10T20:53:57.186Z,102698.34
2022-10-10T20:56:25.872Z,102691.22
2022-10-10T20:58:54.135Z,102693.84
2022-10-10T21:01:23.094Z,102699.28
2022-10-10T21:03:51.041Z,102700.34
2022-10-10T21:06:19.616Z,102699.50
2022-10-10T21:08:47.494Z,102698.59
2022-10-10T21:11:16.913Z,102710.19
2022-10-10T21:13:45.751Z,102712.06
2022-10-10T21:16:14.836Z,102721.91
2022-10-10T21:18:44.604Z,102718.44
2022-10-10T21:21:21.636Z,102702.44
2022-10-10T21:23:52.695Z,102709.63
2022-10-10T21:26:24.671Z,102708.78
2022-10-10T21:28:52.757Z,102704.50
2022-10-10T21:31:21.598Z,102707.13
2022-10-10T21:33:49.420Z,102708.91
2022-10-10T21:36:17.563Z,102709.78
2022-10-10T21:38:45.460Z,102718.78
2022-10-10T21:41:16.175Z,102715.34
2022-10-10T21:43:46.264Z,102716.31
2022-10-10T21:46:15.338Z,102732.41
2022-10-10T21:48:43.385Z,102719.97
2022-10-10T21:51:11.273Z,102719.91
2022-10-10T21:53:39.140Z,102725.25
2022-10-10T21:56:08.971Z,102733.28
2022-10-10T21:58:37.766Z,102735.91
2022-10-10T22:01:10.512Z,102745.66
2022-10-10T22:03:38.484Z,102738.53
2022-10-10T22:06:07.185Z,102749.25
2022-10-10T22:08:35.616Z,102752.91
2022-10-10T22:11:03.705Z,102742.31
2022-10-10T22:13:31.611Z,102746.78
2022-10-10T22:15:59.704Z,102748.69
2022-10-10T22:18:29.006Z,102743.56
2022-10-10T22:20:56.920Z,102744.59
2022-10-10T22:23:24.828Z,102747.41
2022-10-10T22:25:52.732Z,102741.25
2022-10-10T22:28:20.687Z,102747.41
2022-10-10T22:30:48.588Z,102742.81
2022-10-10T22:33:16.480Z,102751.56
2022-10-10T22:35:45.785Z,102748.09
2022-10-10T22:38:13.629Z,102742.94
2022-10-10T22:40:41.460Z,102749.34
2022-10-10T22:43:09.310Z,102751.25
2022-10-10T22:45:37.229Z,102766.34
2022-10-10T22:48:05.216Z,102761.00
2022-10-10T22:50:33.652Z,102764.53
2022-10-10T22:53:03.023Z,102769.00
2022-10-10T22:55:31.248Z,102777.97
2022-10-10T22:57:59.111Z,102770.03
2022-10-10T23:00:27.075Z,102775.34
2022-10-10T23:02:57.947Z,102770.97
2022-10-10T23:05:25.989Z,102771.91
2022-10-10T23:07:53.928Z,102773.69
2022-10-10T23:10:23.165Z,102762.19
2022-10-10T23:12:51.068Z,102766.66
2022-10-10T23:15:18.941Z,102784.41
2022-10-10T23:17:46.800Z,102767.53
2022-10-10T23:20:14.736Z,102771.97
2022-10-10T23:22:42.592Z,102777.28
2022-10-10T23:25:10.656Z,102784.47
2022-10-10T23:27:39.904Z,102788.88
2022-10-10T23:30:08.565Z,102779.16
2022-10-10T23:32:36.428Z,102785.50
2022-10-10T23:35:04.351Z,102789.97
2022-10-10T23:37:32.219Z,102774.91
2022-10-10T23:40:00.141Z,102774.13
2022-10-10T23:42:28.046Z,102786.75
2022-10-10T23:44:57.304Z,102783.25
2022-10-10T23:47:25.174Z,102737.47
2022-10-10T23:49:52.993Z,102776.09
2022-10-10T23:52:20.858Z,102777.88
2022-10-10T23:54:48.700Z,102711.84
2022-10-10T23:57:16.591Z,102776.09
2022-10-10T23:59:44.441Z,102784.09
